Check out our new PWSWeather beta!
PWSweather.com
Personal Weather Stations
Station Observations
LEUVEN
Sluispark, LeuvenBE 3000

SluisparkLeuvenBE 3000

Lat: 50.881, Lon: 4.699

Elevation: 40

Station Type: Davis VUE

Latest ConditionsUpdated 8:27:04 AM GMT+01:01 Friday, Feb 21, 2020
Currently Today's Max Today's Min Today's Average
Temperature 37.6°F3.1°C 40.8°F4.9°C 37.4°F3.0°C 38.7°F3.7°C
Dew Point 34.3°F1.3°C 36.9°F2.7°C 33.8°F1.0°C 34.8°F1.6°C
Winds Calm Calm 4.9 mph -7.9 kmh - - 1.5 mph 2.4 kmh
Wind Gusts 0.9 mph1.4 kmh 14.0 mph22.5 kmh - -
Humidity 88% 88% 83% 86%
Pressure 30.34 in1027.4 mb 30.34 in1027.4 mb 30.16 in1021.3 mb -
Hour Temp Dew Point Humidity Winds Wind Gusts Pressure Precip Precip Rate Daily Precip Total
08:27 AM 37.6°F3.1°C 34.3°F1.3°C 88% Calm Calm 0.9 mph1.4 kmh 30.34 in1027.4 mb 0.00 in0.0 mm 0.00 in0.0 mm 0.00 in0.0 mm
08:25 AM 37.6°F3.1°C 34.3°F1.3°C 88% Calm Calm 0.9 mph1.4 kmh 30.34 in1027.4 mb 0.00 in0.0 mm 0.00 in0.0 mm 0.00 in0.0 mm
08:23 AM 37.6°F3.1°C 34.3°F1.3°C 88% Calm Calm 0.9 mph1.4 kmh 30.34 in1027.4 mb 0.00 in0.0 mm 0.00 in0.0 mm 0.00 in0.0 mm
08:21 AM 37.6°F3.1°C 34.3°F1.3°C 88% Calm Calm 2.0 mph3.2 kmh 30.34 in1027.4 mb 0.00 in0.0 mm 0.00 in0.0 mm 0.00 in0.0 mm
08:19 AM 37.6°F3.1°C 34.0°F1.1°C 87% Calm Calm 2.0 mph3.2 kmh 30.34 in1027.4 mb 0.00 in0.0 mm 0.00 in0.0 mm 0.00 in0.0 mm
08:17 AM 37.6°F3.1°C 34.0°F1.1°C 87% Calm Calm 0.9 mph1.4 kmh 30.34 in1027.4 mb 0.00 in0.0 mm 0.00 in0.0 mm 0.00 in0.0 mm
08:15 AM 37.6°F3.1°C 34.3°F1.3°C 88% Calm Calm 0.9 mph1.4 kmh 30.34 in1027.4 mb 0.00 in0.0 mm 0.00 in0.0 mm 0.00 in0.0 mm
08:13 AM 37.6°F3.1°C 34.0°F1.1°C 87% Calm Calm 0.9 mph1.4 kmh 30.34 in1027.4 mb 0.00 in0.0 mm 0.00 in0.0 mm 0.00 in0.0 mm
08:11 AM 37.6°F3.1°C 34.0°F1.1°C 87% Calm Calm 2.0 mph3.2 kmh 30.34 in1027.4 mb 0.00 in0.0 mm 0.00 in0.0 mm 0.00 in0.0 mm
08:09 AM 37.4°F3.0°C 33.8°F1.0°C 87% Calm Calm 0.9 mph1.4 kmh 30.34 in1027.4 mb 0.00 in0.0 mm 0.00 in0.0 mm 0.00 in0.0 mm
08:07 AM 37.6°F3.1°C 34.0°F1.1°C 87% Calm Calm 0.9 mph1.4 kmh 30.34 in1027.4 mb 0.00 in0.0 mm 0.00 in0.0 mm 0.00 in0.0 mm
08:05 AM 37.6°F3.1°C 34.0°F1.1°C 87% Calm Calm 0.9 mph1.4 kmh 30.34 in1027.4 mb 0.00 in0.0 mm 0.00 in0.0 mm 0.00 in0.0 mm
08:03 AM 37.6°F3.1°C 34.0°F1.1°C 87% Calm Calm 3.0 mph4.8 kmh 30.34 in1027.4 mb 0.00 in0.0 mm 0.00 in0.0 mm 0.00 in0.0 mm
08:01 AM 37.6°F3.1°C 34.0°F1.1°C 87% Calm Calm 2.0 mph3.2 kmh 30.34 in1027.4 mb 0.00 in0.0 mm 0.00 in0.0 mm 0.00 in0.0 mm
07:59 AM 37.6°F3.1°C 34.0°F1.1°C 87% Calm Calm 0.9 mph1.4 kmh 30.34 in1027.4 mb 0.00 in0.0 mm 0.00 in0.0 mm 0.00 in0.0 mm
07:57 AM 37.6°F3.1°C 34.0°F1.1°C 87% Calm Calm 0.9 mph1.4 kmh 30.33 in1027.1 mb 0.00 in0.0 mm 0.00 in0.0 mm 0.00 in0.0 mm
07:55 AM 37.6°F3.1°C 34.0°F1.1°C 87% Calm Calm -- 30.34 in1027.4 mb 0.00 in0.0 mm 0.00 in0.0 mm 0.00 in0.0 mm
07:52 AM 37.8°F3.2°C 34.2°F1.2°C 87% Calm Calm 0.9 mph1.4 kmh 30.34 in1027.4 mb 0.00 in0.0 mm 0.00 in0.0 mm 0.00 in0.0 mm
07:50 AM 37.8°F3.2°C 34.0°F1.1°C 86% Calm Calm 0.9 mph1.4 kmh 30.34 in1027.4 mb 0.00 in0.0 mm 0.00 in0.0 mm 0.00 in0.0 mm
07:48 AM 37.8°F3.2°C 34.0°F1.1°C 86% Calm Calm 0.9 mph1.4 kmh 30.33 in1027.1 mb 0.00 in0.0 mm 0.00 in0.0 mm 0.00 in0.0 mm
07:46 AM 37.9°F3.3°C 34.2°F1.2°C 86% Calm Calm -- 30.33 in1027.1 mb 0.00 in0.0 mm 0.00 in0.0 mm 0.00 in0.0 mm
07:44 AM 37.9°F3.3°C 34.2°F1.2°C 86% Calm Calm 0.9 mph1.4 kmh 30.33 in1027.1 mb 0.00 in0.0 mm 0.00 in0.0 mm 0.00 in0.0 mm
07:42 AM 37.9°F3.3°C 34.2°F1.2°C 86% Calm Calm 0.9 mph1.4 kmh 30.33 in1027.1 mb 0.00 in0.0 mm 0.00 in0.0 mm 0.00 in0.0 mm
07:40 AM 37.9°F3.3°C 34.2°F1.2°C 86% Calm Calm 0.9 mph1.4 kmh 30.33 in1027.1 mb 0.00 in0.0 mm 0.00 in0.0 mm 0.00 in0.0 mm
07:38 AM 38.1°F3.4°C 34.3°F1.3°C 86% Calm Calm -- 30.33 in1027.1 mb 0.00 in0.0 mm 0.00 in0.0 mm 0.00 in0.0 mm
07:36 AM 38.1°F3.4°C 34.0°F1.1°C 85% Calm Calm 4.0 mph6.4 kmh 30.33 in1027.1 mb 0.00 in0.0 mm 0.00 in0.0 mm 0.00 in0.0 mm
07:34 AM 38.3°F3.5°C 34.2°F1.2°C 85% Calm Calm 0.9 mph1.4 kmh 30.33 in1027.1 mb 0.00 in0.0 mm 0.00 in0.0 mm 0.00 in0.0 mm
07:32 AM 38.3°F3.5°C 34.2°F1.2°C 85% 0.9 mph E1.4 kmh E 0.9 mph1.4 kmh 30.33 in1027.1 mb 0.00 in0.0 mm 0.00 in0.0 mm 0.00 in0.0 mm
07:30 AM 38.3°F3.5°C 34.2°F1.2°C 85% 0.9 mph E1.4 kmh E 0.9 mph1.4 kmh 30.33 in1027.1 mb 0.00 in0.0 mm 0.00 in0.0 mm 0.00 in0.0 mm
07:28 AM 38.5°F3.6°C 34.3°F1.3°C 85% 0.9 mph SW1.4 kmh SW 2.0 mph3.2 kmh 30.33 in1027.1 mb 0.00 in0.0 mm 0.00 in0.0 mm 0.00 in0.0 mm
07:26 AM 38.5°F3.6°C 34.3°F1.3°C 85% 0.9 mph E1.4 kmh E 4.0 mph6.4 kmh 30.33 in1027.1 mb 0.00 in0.0 mm 0.00 in0.0 mm 0.00 in0.0 mm
07:24 AM 38.5°F3.6°C 34.3°F1.3°C 85% 0.9 mph ENE1.4 kmh ENE 4.9 mph7.9 kmh 30.32 in1026.8 mb 0.00 in0.0 mm 0.00 in0.0 mm 0.00 in0.0 mm
07:22 AM 38.5°F3.6°C 34.3°F1.3°C 85% 0.9 mph WNW1.4 kmh WNW 4.9 mph7.9 kmh 30.33 in1027.1 mb 0.00 in0.0 mm 0.00 in0.0 mm 0.00 in0.0 mm
07:20 AM 38.5°F3.6°C 34.3°F1.3°C 85% 0.9 mph NW1.4 kmh NW 4.9 mph7.9 kmh 30.33 in1027.1 mb 0.00 in0.0 mm 0.00 in0.0 mm 0.00 in0.0 mm
07:18 AM 38.5°F3.6°C 34.3°F1.3°C 85% 0.9 mph W1.4 kmh W 2.9 mph4.7 kmh 30.33 in1027.1 mb 0.00 in0.0 mm 0.00 in0.0 mm 0.00 in0.0 mm
07:16 AM 38.3°F3.5°C 34.2°F1.2°C 85% 0.9 mph ENE1.4 kmh ENE 0.9 mph1.4 kmh 30.32 in1026.8 mb 0.00 in0.0 mm 0.00 in0.0 mm 0.00 in0.0 mm
07:14 AM 38.5°F3.6°C 34.3°F1.3°C 85% 0.9 mph E1.4 kmh E 4.0 mph6.4 kmh 30.33 in1027.1 mb 0.00 in0.0 mm 0.00 in0.0 mm 0.00 in0.0 mm
07:12 AM 38.3°F3.5°C 34.2°F1.2°C 85% 0.9 mph W1.4 kmh W 4.9 mph7.9 kmh 30.32 in1026.8 mb 0.00 in0.0 mm 0.00 in0.0 mm 0.00 in0.0 mm
07:10 AM 38.3°F3.5°C 34.2°F1.2°C 85% 0.9 mph WNW1.4 kmh WNW 2.9 mph4.7 kmh 30.33 in1027.1 mb 0.00 in0.0 mm 0.00 in0.0 mm 0.00 in0.0 mm
07:08 AM 38.3°F3.5°C 34.2°F1.2°C 85% 0.9 mph NW1.4 kmh NW 4.0 mph6.4 kmh 30.32 in1026.8 mb 0.00 in0.0 mm 0.00 in0.0 mm 0.00 in0.0 mm
07:05 AM 38.3°F3.5°C 34.2°F1.2°C 85% 0.9 mph WSW1.4 kmh WSW 4.0 mph6.4 kmh 30.32 in1026.8 mb 0.00 in0.0 mm 0.00 in0.0 mm 0.00 in0.0 mm
07:03 AM 38.3°F3.5°C 34.2°F1.2°C 85% 0.9 mph WSW1.4 kmh WSW 6.0 mph9.7 kmh 30.32 in1026.8 mb 0.00 in0.0 mm 0.00 in0.0 mm 0.00 in0.0 mm
07:01 AM 38.3°F3.5°C 34.2°F1.2°C 85% 0.9 mph WSW1.4 kmh WSW 2.0 mph3.2 kmh 30.32 in1026.8 mb 0.00 in0.0 mm 0.00 in0.0 mm 0.00 in0.0 mm
06:59 AM 38.3°F3.5°C 34.2°F1.2°C 85% 0.9 mph W1.4 kmh W 4.0 mph6.4 kmh 30.32 in1026.8 mb 0.00 in0.0 mm 0.00 in0.0 mm 0.00 in0.0 mm
06:57 AM 38.3°F3.5°C 34.2°F1.2°C 85% 0.9 mph W1.4 kmh W 6.0 mph9.7 kmh 30.32 in1026.8 mb 0.00 in0.0 mm 0.00 in0.0 mm 0.00 in0.0 mm
06:55 AM 38.5°F3.6°C 34.3°F1.3°C 85% 0.9 mph WNW1.4 kmh WNW 2.9 mph4.7 kmh 30.32 in1026.8 mb 0.00 in0.0 mm 0.00 in0.0 mm 0.00 in0.0 mm
06:53 AM 38.5°F3.6°C 34.3°F1.3°C 85% 0.9 mph E1.4 kmh E 4.9 mph7.9 kmh 30.32 in1026.8 mb 0.00 in0.0 mm 0.00 in0.0 mm 0.00 in0.0 mm
06:51 AM 38.5°F3.6°C 34.2°F1.2°C 84% 0.9 mph NW1.4 kmh NW 4.0 mph6.4 kmh 30.32 in1026.8 mb 0.00 in0.0 mm 0.00 in0.0 mm 0.00 in0.0 mm
06:49 AM 38.5°F3.6°C 34.3°F1.3°C 85% 0.9 mph W1.4 kmh W 2.9 mph4.7 kmh 30.32 in1026.8 mb 0.00 in0.0 mm 0.00 in0.0 mm 0.00 in0.0 mm
06:47 AM 38.5°F3.6°C 34.2°F1.2°C 84% 0.9 mph NNW1.4 kmh NNW 6.0 mph9.7 kmh 30.32 in1026.8 mb 0.00 in0.0 mm 0.00 in0.0 mm 0.00 in0.0 mm
06:45 AM 38.5°F3.6°C 34.2°F1.2°C 84% 0.9 mph W1.4 kmh W 2.9 mph4.7 kmh 30.32 in1026.8 mb 0.00 in0.0 mm 0.00 in0.0 mm 0.00 in0.0 mm
06:43 AM 38.5°F3.6°C 34.3°F1.3°C 85% 0.9 mph WSW1.4 kmh WSW 4.0 mph6.4 kmh 30.32 in1026.8 mb 0.00 in0.0 mm 0.00 in0.0 mm 0.00 in0.0 mm
06:41 AM 38.5°F3.6°C 34.3°F1.3°C 85% 0.9 mph W1.4 kmh W 8.1 mph13.0 kmh 30.32 in1026.8 mb 0.00 in0.0 mm 0.00 in0.0 mm 0.00 in0.0 mm
06:39 AM 38.5°F3.6°C 34.3°F1.3°C 85% 0.9 mph WSW1.4 kmh WSW 7.0 mph11.3 kmh 30.32 in1026.8 mb 0.00 in0.0 mm 0.00 in0.0 mm 0.00 in0.0 mm
06:37 AM 38.3°F3.5°C 34.2°F1.2°C 85% 0.9 mph N1.4 kmh N 4.0 mph6.4 kmh 30.32 in1026.8 mb 0.00 in0.0 mm 0.00 in0.0 mm 0.00 in0.0 mm
06:35 AM 38.3°F3.5°C 34.2°F1.2°C 85% 0.9 mph W1.4 kmh W 2.9 mph4.7 kmh 30.32 in1026.8 mb 0.00 in0.0 mm 0.00 in0.0 mm 0.00 in0.0 mm
06:33 AM 38.3°F3.5°C 34.2°F1.2°C 85% 0.9 mph W1.4 kmh W 4.9 mph7.9 kmh 30.32 in1026.8 mb 0.00 in0.0 mm 0.00 in0.0 mm 0.00 in0.0 mm
06:31 AM 38.3°F3.5°C 34.2°F1.2°C 85% 0.9 mph WNW1.4 kmh WNW 4.0 mph6.4 kmh 30.32 in1026.8 mb 0.00 in0.0 mm 0.00 in0.0 mm 0.00 in0.0 mm
06:29 AM 38.3°F3.5°C 34.2°F1.2°C 85% 2.0 mph W3.2 kmh W 4.9 mph7.9 kmh 30.32 in1026.8 mb 0.00 in0.0 mm 0.00 in0.0 mm 0.00 in0.0 mm
06:27 AM 38.3°F3.5°C 34.2°F1.2°C 85% 0.9 mph WSW1.4 kmh WSW 4.9 mph7.9 kmh 30.32 in1026.8 mb 0.00 in0.0 mm 0.00 in0.0 mm 0.00 in0.0 mm
06:25 AM 38.3°F3.5°C 34.2°F1.2°C 85% 0.9 mph WSW1.4 kmh WSW 4.9 mph7.9 kmh 30.32 in1026.8 mb 0.00 in0.0 mm 0.00 in0.0 mm 0.00 in0.0 mm
06:23 AM 38.1°F3.4°C 34.0°F1.1°C 85% 0.9 mph ESE1.4 kmh ESE 4.9 mph7.9 kmh 30.32 in1026.8 mb 0.00 in0.0 mm 0.00 in0.0 mm 0.00 in0.0 mm
06:21 AM 38.1°F3.4°C 34.0°F1.1°C 85% 0.9 mph WSW1.4 kmh WSW 4.0 mph6.4 kmh 30.32 in1026.8 mb 0.00 in0.0 mm 0.00 in0.0 mm 0.00 in0.0 mm
06:19 AM 38.1°F3.4°C 34.0°F1.1°C 85% 0.9 mph W1.4 kmh W 4.0 mph6.4 kmh 30.32 in1026.8 mb 0.00 in0.0 mm 0.00 in0.0 mm 0.00 in0.0 mm
06:16 AM 38.1°F3.4°C 34.0°F1.1°C 85% 0.9 mph WNW1.4 kmh WNW 2.0 mph3.2 kmh 30.32 in1026.8 mb 0.00 in0.0 mm 0.00 in0.0 mm 0.00 in0.0 mm
06:14 AM 38.1°F3.4°C 34.0°F1.1°C 85% 0.9 mph W1.4 kmh W 4.9 mph7.9 kmh 30.32 in1026.8 mb 0.00 in0.0 mm 0.00 in0.0 mm 0.00 in0.0 mm
06:12 AM 38.1°F3.4°C 34.0°F1.1°C 85% 0.9 mph WSW1.4 kmh WSW 4.0 mph6.4 kmh 30.31 in1026.4 mb 0.00 in0.0 mm 0.00 in0.0 mm 0.00 in0.0 mm
06:10 AM 38.3°F3.5°C 34.2°F1.2°C 85% 0.9 mph W1.4 kmh W 4.9 mph7.9 kmh 30.31 in1026.4 mb 0.00 in0.0 mm 0.00 in0.0 mm 0.00 in0.0 mm
06:08 AM 38.1°F3.4°C 34.0°F1.1°C 85% 0.9 mph NW1.4 kmh NW 4.0 mph6.4 kmh 30.31 in1026.4 mb 0.00 in0.0 mm 0.00 in0.0 mm 0.00 in0.0 mm
06:06 AM 38.3°F3.5°C 34.2°F1.2°C 85% 0.9 mph WSW1.4 kmh WSW 4.0 mph6.4 kmh 30.31 in1026.4 mb 0.00 in0.0 mm 0.00 in0.0 mm 0.00 in0.0 mm
06:04 AM 38.3°F3.5°C 34.2°F1.2°C 85% 0.9 mph WSW1.4 kmh WSW 4.0 mph6.4 kmh 30.31 in1026.4 mb 0.00 in0.0 mm 0.00 in0.0 mm 0.00 in0.0 mm
06:02 AM 38.3°F3.5°C 34.2°F1.2°C 85% 0.9 mph W1.4 kmh W 4.9 mph7.9 kmh 30.31 in1026.4 mb 0.00 in0.0 mm 0.00 in0.0 mm 0.00 in0.0 mm
06:00 AM 38.3°F3.5°C 34.0°F1.1°C 84% 0.9 mph WSW1.4 kmh WSW 2.0 mph3.2 kmh 30.31 in1026.4 mb 0.00 in0.0 mm 0.00 in0.0 mm 0.00 in0.0 mm
05:58 AM 38.3°F3.5°C 34.2°F1.2°C 85% 2.0 mph WSW3.2 kmh WSW 6.0 mph9.7 kmh 30.31 in1026.4 mb 0.00 in0.0 mm 0.00 in0.0 mm 0.00 in0.0 mm
05:56 AM 38.1°F3.4°C 34.0°F1.1°C 85% 0.9 mph WSW1.4 kmh WSW 7.0 mph11.3 kmh 30.31 in1026.4 mb 0.00 in0.0 mm 0.00 in0.0 mm 0.00 in0.0 mm
05:54 AM 38.1°F3.4°C 34.0°F1.1°C 85% 0.9 mph NNW1.4 kmh NNW 4.9 mph7.9 kmh 30.31 in1026.4 mb 0.00 in0.0 mm 0.00 in0.0 mm 0.00 in0.0 mm
05:52 AM 38.1°F3.4°C 34.0°F1.1°C 85% 0.9 mph SW1.4 kmh SW 4.0 mph6.4 kmh 30.31 in1026.4 mb 0.00 in0.0 mm 0.00 in0.0 mm 0.00 in0.0 mm
05:50 AM 38.1°F3.4°C 34.0°F1.1°C 85% 0.9 mph WNW1.4 kmh WNW 4.0 mph6.4 kmh 30.30 in1026.1 mb 0.00 in0.0 mm 0.00 in0.0 mm 0.00 in0.0 mm
05:48 AM 38.1°F3.4°C 34.0°F1.1°C 85% 2.0 mph E3.2 kmh E 4.9 mph7.9 kmh 30.31 in1026.4 mb 0.00 in0.0 mm 0.00 in0.0 mm 0.00 in0.0 mm
05:46 AM 38.1°F3.4°C 34.0°F1.1°C 85% 2.0 mph WSW3.2 kmh WSW 4.9 mph7.9 kmh 30.30 in1026.1 mb 0.00 in0.0 mm 0.00 in0.0 mm 0.00 in0.0 mm
05:44 AM 38.1°F3.4°C 34.0°F1.1°C 85% 0.9 mph WNW1.4 kmh WNW 4.0 mph6.4 kmh 30.30 in1026.1 mb 0.00 in0.0 mm 0.00 in0.0 mm 0.00 in0.0 mm
05:42 AM 38.1°F3.4°C 34.0°F1.1°C 85% 0.9 mph W1.4 kmh W 7.0 mph11.3 kmh 30.30 in1026.1 mb 0.00 in0.0 mm 0.00 in0.0 mm 0.00 in0.0 mm
05:40 AM 38.1°F3.4°C 34.0°F1.1°C 85% 0.9 mph WSW1.4 kmh WSW 7.0 mph11.3 kmh 30.30 in1026.1 mb 0.00 in0.0 mm 0.00 in0.0 mm 0.00 in0.0 mm
05:38 AM 38.1°F3.4°C 34.0°F1.1°C 85% 0.9 mph WNW1.4 kmh WNW 2.9 mph4.7 kmh 30.30 in1026.1 mb 0.00 in0.0 mm 0.00 in0.0 mm 0.00 in0.0 mm
05:36 AM 38.1°F3.4°C 34.0°F1.1°C 85% 0.9 mph WSW1.4 kmh WSW 2.9 mph4.7 kmh 30.30 in1026.1 mb 0.00 in0.0 mm 0.00 in0.0 mm 0.00 in0.0 mm
05:34 AM 38.1°F3.4°C 34.0°F1.1°C 85% 0.9 mph W1.4 kmh W 2.9 mph4.7 kmh 30.30 in1026.1 mb 0.00 in0.0 mm 0.00 in0.0 mm 0.00 in0.0 mm
05:32 AM 38.1°F3.4°C 34.0°F1.1°C 85% 0.9 mph WSW1.4 kmh WSW 4.0 mph6.4 kmh 30.30 in1026.1 mb 0.00 in0.0 mm 0.00 in0.0 mm 0.00 in0.0 mm
05:30 AM 38.1°F3.4°C 34.0°F1.1°C 85% 0.9 mph W1.4 kmh W 2.9 mph4.7 kmh 30.30 in1026.1 mb 0.00 in0.0 mm 0.00 in0.0 mm 0.00 in0.0 mm
05:28 AM 38.3°F3.5°C 34.0°F1.1°C 84% 0.9 mph NNW1.4 kmh NNW 2.0 mph3.2 kmh 30.30 in1026.1 mb 0.00 in0.0 mm 0.00 in0.0 mm 0.00 in0.0 mm
05:26 AM 38.3°F3.5°C 34.0°F1.1°C 84% 0.9 mph WNW1.4 kmh WNW 2.9 mph4.7 kmh 30.30 in1026.1 mb 0.00 in0.0 mm 0.00 in0.0 mm 0.00 in0.0 mm
05:24 AM 38.5°F3.6°C 34.2°F1.2°C 84% 0.9 mph W1.4 kmh W 2.9 mph4.7 kmh 30.29 in1025.7 mb 0.00 in0.0 mm 0.00 in0.0 mm 0.00 in0.0 mm
05:22 AM 38.5°F3.6°C 34.2°F1.2°C 84% 0.9 mph SSW1.4 kmh SSW 7.0 mph11.3 kmh 30.30 in1026.1 mb 0.00 in0.0 mm 0.00 in0.0 mm 0.00 in0.0 mm
05:20 AM 38.5°F3.6°C 34.2°F1.2°C 84% 2.0 mph WSW3.2 kmh WSW 2.0 mph3.2 kmh 30.30 in1026.1 mb 0.00 in0.0 mm 0.00 in0.0 mm 0.00 in0.0 mm
05:18 AM 38.5°F3.6°C 34.2°F1.2°C 84% 2.0 mph WNW3.2 kmh WNW 6.0 mph9.7 kmh 30.30 in1026.1 mb 0.00 in0.0 mm 0.00 in0.0 mm 0.00 in0.0 mm
05:16 AM 38.5°F3.6°C 34.2°F1.2°C 84% 2.0 mph WSW3.2 kmh WSW 4.0 mph6.4 kmh 30.30 in1026.1 mb 0.00 in0.0 mm 0.00 in0.0 mm 0.00 in0.0 mm
05:14 AM 38.7°F3.7°C 34.2°F1.2°C 84% 2.0 mph NW3.2 kmh NW 6.0 mph9.7 kmh 30.30 in1026.1 mb 0.00 in0.0 mm 0.00 in0.0 mm 0.00 in0.0 mm
05:12 AM 38.7°F3.7°C 34.2°F1.2°C 84% 2.0 mph WSW3.2 kmh WSW 8.1 mph13.0 kmh 30.30 in1026.1 mb 0.00 in0.0 mm 0.00 in0.0 mm 0.00 in0.0 mm
05:10 AM 38.7°F3.7°C 34.2°F1.2°C 84% 2.0 mph NW3.2 kmh NW 8.1 mph13.0 kmh 30.30 in1026.1 mb 0.00 in0.0 mm 0.00 in0.0 mm 0.00 in0.0 mm
05:08 AM 38.7°F3.7°C 34.2°F1.2°C 84% 2.0 mph SW3.2 kmh SW 6.0 mph9.7 kmh 30.30 in1026.1 mb 0.00 in0.0 mm 0.00 in0.0 mm 0.00 in0.0 mm
05:06 AM 38.7°F3.7°C 34.2°F1.2°C 84% 2.9 mph ENE4.7 kmh ENE 2.9 mph4.7 kmh 30.29 in1025.7 mb 0.00 in0.0 mm 0.00 in0.0 mm 0.00 in0.0 mm
05:04 AM 38.7°F3.7°C 34.2°F1.2°C 84% 2.9 mph WSW4.7 kmh WSW 6.9 mph11.1 kmh 30.30 in1026.1 mb 0.00 in0.0 mm 0.00 in0.0 mm 0.00 in0.0 mm
05:02 AM 38.7°F3.7°C 34.2°F1.2°C 84% 2.9 mph SW4.7 kmh SW 8.1 mph13.0 kmh 30.30 in1026.1 mb 0.00 in0.0 mm 0.00 in0.0 mm 0.00 in0.0 mm
05:00 AM 38.7°F3.7°C 34.2°F1.2°C 84% 2.9 mph SSW4.7 kmh SSW 8.1 mph13.0 kmh 30.29 in1025.7 mb 0.00 in0.0 mm 0.00 in0.0 mm 0.00 in0.0 mm
04:58 AM 38.7°F3.7°C 34.2°F1.2°C 84% 2.9 mph WNW4.7 kmh WNW 8.9 mph14.3 kmh 30.29 in1025.7 mb 0.00 in0.0 mm 0.00 in0.0 mm 0.00 in0.0 mm
04:56 AM 38.7°F3.7°C 34.2°F1.2°C 84% 2.9 mph E4.7 kmh E 8.1 mph13.0 kmh 30.29 in1025.7 mb 0.00 in0.0 mm 0.00 in0.0 mm 0.00 in0.0 mm
04:54 AM 38.8°F3.8°C 34.2°F1.2°C 83% 2.9 mph WNW4.7 kmh WNW 10.1 mph16.3 kmh 30.29 in1025.7 mb 0.00 in0.0 mm 0.00 in0.0 mm 0.00 in0.0 mm
04:52 AM 38.8°F3.8°C 34.2°F1.2°C 83% 2.9 mph WSW4.7 kmh WSW 6.9 mph11.1 kmh 30.29 in1025.7 mb 0.00 in0.0 mm 0.00 in0.0 mm 0.00 in0.0 mm
04:50 AM 38.8°F3.8°C 34.2°F1.2°C 83% 2.9 mph NW4.7 kmh NW 6.9 mph11.1 kmh 30.29 in1025.7 mb 0.00 in0.0 mm 0.00 in0.0 mm 0.00 in0.0 mm
04:48 AM 38.8°F3.8°C 34.2°F1.2°C 83% 4.0 mph NW6.4 kmh NW 6.9 mph11.1 kmh 30.29 in1025.7 mb 0.00 in0.0 mm 0.00 in0.0 mm 0.00 in0.0 mm
04:46 AM 38.8°F3.8°C 34.3°F1.3°C 84% 2.9 mph WSW4.7 kmh WSW 11.0 mph17.7 kmh 30.29 in1025.7 mb 0.00 in0.0 mm 0.00 in0.0 mm 0.00 in0.0 mm
04:44 AM 38.7°F3.7°C 34.2°F1.2°C 84% 4.0 mph SW6.4 kmh SW 10.1 mph16.3 kmh 30.29 in1025.7 mb 0.00 in0.0 mm 0.00 in0.0 mm 0.00 in0.0 mm
04:42 AM 38.7°F3.7°C 34.2°F1.2°C 84% 4.0 mph W6.4 kmh W 8.9 mph14.3 kmh 30.29 in1025.7 mb 0.00 in0.0 mm 0.00 in0.0 mm 0.00 in0.0 mm
04:40 AM 38.7°F3.7°C 34.2°F1.2°C 84% 4.0 mph W6.4 kmh W 8.9 mph14.3 kmh 30.29 in1025.7 mb 0.00 in0.0 mm 0.00 in0.0 mm 0.00 in0.0 mm
04:38 AM 38.5°F3.6°C 34.2°F1.2°C 84% 2.9 mph WSW4.7 kmh WSW 4.9 mph7.9 kmh 30.29 in1025.7 mb 0.00 in0.0 mm 0.00 in0.0 mm 0.00 in0.0 mm
04:36 AM 38.5°F3.6°C 34.2°F1.2°C 84% 2.9 mph WSW4.7 kmh WSW 6.9 mph11.1 kmh 30.29 in1025.7 mb 0.00 in0.0 mm 0.00 in0.0 mm 0.00 in0.0 mm
04:34 AM 38.5°F3.6°C 34.2°F1.2°C 84% 2.9 mph NE4.7 kmh NE 6.9 mph11.1 kmh 30.29 in1025.7 mb 0.00 in0.0 mm 0.00 in0.0 mm 0.00 in0.0 mm
04:32 AM 38.5°F3.6°C 34.2°F1.2°C 84% 2.0 mph WNW3.2 kmh WNW 6.9 mph11.1 kmh 30.28 in1025.4 mb 0.00 in0.0 mm 0.00 in0.0 mm 0.00 in0.0 mm
04:30 AM 38.5°F3.6°C 34.2°F1.2°C 84% 2.0 mph NNW3.2 kmh NNW 8.1 mph13.0 kmh 30.28 in1025.4 mb 0.00 in0.0 mm 0.00 in0.0 mm 0.00 in0.0 mm
04:28 AM 38.5°F3.6°C 34.2°F1.2°C 84% 2.0 mph WNW3.2 kmh WNW 4.9 mph7.9 kmh 30.28 in1025.4 mb 0.00 in0.0 mm 0.00 in0.0 mm 0.00 in0.0 mm
04:26 AM 38.5°F3.6°C 34.2°F1.2°C 84% 2.0 mph WSW3.2 kmh WSW 6.0 mph9.7 kmh 30.28 in1025.4 mb 0.00 in0.0 mm 0.00 in0.0 mm 0.00 in0.0 mm
04:24 AM 38.5°F3.6°C 34.2°F1.2°C 84% 2.0 mph W3.2 kmh W 4.9 mph7.9 kmh 30.28 in1025.4 mb 0.00 in0.0 mm 0.00 in0.0 mm 0.00 in0.0 mm
04:22 AM 38.3°F3.5°C 34.2°F1.2°C 85% 2.0 mph SW3.2 kmh SW 6.0 mph9.7 kmh 30.28 in1025.4 mb 0.00 in0.0 mm 0.00 in0.0 mm 0.00 in0.0 mm
04:20 AM 38.3°F3.5°C 34.2°F1.2°C 85% 2.0 mph SW3.2 kmh SW 4.0 mph6.4 kmh 30.28 in1025.4 mb 0.00 in0.0 mm 0.00 in0.0 mm 0.00 in0.0 mm
04:18 AM 38.3°F3.5°C 34.2°F1.2°C 85% 2.0 mph W3.2 kmh W 6.0 mph9.7 kmh 30.28 in1025.4 mb 0.00 in0.0 mm 0.00 in0.0 mm 0.00 in0.0 mm
04:16 AM 38.3°F3.5°C 34.2°F1.2°C 85% 2.0 mph W3.2 kmh W 8.1 mph13.0 kmh 30.28 in1025.4 mb 0.00 in0.0 mm 0.00 in0.0 mm 0.00 in0.0 mm
04:14 AM 38.3°F3.5°C 34.2°F1.2°C 85% 2.0 mph W3.2 kmh W 6.9 mph11.1 kmh 30.28 in1025.4 mb 0.00 in0.0 mm 0.00 in0.0 mm 0.00 in0.0 mm
04:12 AM 38.1°F3.4°C 34.0°F1.1°C 85% 2.0 mph WSW3.2 kmh WSW 6.9 mph11.1 kmh 30.28 in1025.4 mb 0.00 in0.0 mm 0.00 in0.0 mm 0.00 in0.0 mm
04:10 AM 38.3°F3.5°C 34.2°F1.2°C 85% 2.0 mph NW3.2 kmh NW 4.0 mph6.4 kmh 30.28 in1025.4 mb 0.00 in0.0 mm 0.00 in0.0 mm 0.00 in0.0 mm
04:08 AM 38.3°F3.5°C 34.2°F1.2°C 85% 0.9 mph NW1.4 kmh NW 6.0 mph9.7 kmh 30.27 in1025.1 mb 0.00 in0.0 mm 0.00 in0.0 mm 0.00 in0.0 mm
04:06 AM 38.1°F3.4°C 34.0°F1.1°C 85% 0.9 mph WNW1.4 kmh WNW 4.0 mph6.4 kmh 30.27 in1025.1 mb 0.00 in0.0 mm 0.00 in0.0 mm 0.00 in0.0 mm
04:04 AM 38.3°F3.5°C 34.2°F1.2°C 85% 0.9 mph W1.4 kmh W 4.9 mph7.9 kmh 30.27 in1025.1 mb 0.00 in0.0 mm 0.00 in0.0 mm 0.00 in0.0 mm
04:02 AM 38.3°F3.5°C 34.2°F1.2°C 85% 0.9 mph W1.4 kmh W 4.9 mph7.9 kmh 30.27 in1025.1 mb 0.00 in0.0 mm 0.00 in0.0 mm 0.00 in0.0 mm
04:00 AM 38.3°F3.5°C 34.0°F1.1°C 84% 0.9 mph W1.4 kmh W 4.0 mph6.4 kmh 30.27 in1025.1 mb 0.00 in0.0 mm 0.00 in0.0 mm 0.00 in0.0 mm
03:58 AM 38.5°F3.6°C 34.2°F1.2°C 84% 0.9 mph W1.4 kmh W 4.0 mph6.4 kmh 30.27 in1025.1 mb 0.00 in0.0 mm 0.00 in0.0 mm 0.00 in0.0 mm
03:56 AM 38.5°F3.6°C 34.2°F1.2°C 84% 2.0 mph W3.2 kmh W 6.0 mph9.7 kmh 30.27 in1025.1 mb 0.00 in0.0 mm 0.00 in0.0 mm 0.00 in0.0 mm
03:54 AM 38.5°F3.6°C 34.2°F1.2°C 84% 2.0 mph WNW3.2 kmh WNW 2.0 mph3.2 kmh 30.27 in1025.1 mb 0.00 in0.0 mm 0.00 in0.0 mm 0.00 in0.0 mm
03:52 AM 38.5°F3.6°C 34.2°F1.2°C 84% 2.0 mph W3.2 kmh W 4.9 mph7.9 kmh 30.27 in1025.1 mb 0.00 in0.0 mm 0.00 in0.0 mm 0.00 in0.0 mm
03:50 AM 38.5°F3.6°C 34.2°F1.2°C 84% 2.9 mph W4.7 kmh W 4.9 mph7.9 kmh 30.27 in1025.1 mb 0.00 in0.0 mm 0.00 in0.0 mm 0.00 in0.0 mm
03:48 AM 38.5°F3.6°C 34.2°F1.2°C 84% 2.9 mph N4.7 kmh N 10.0 mph16.1 kmh 30.27 in1025.1 mb 0.00 in0.0 mm 0.00 in0.0 mm 0.00 in0.0 mm
03:46 AM 38.5°F3.6°C 34.3°F1.3°C 85% 2.0 mph WNW3.2 kmh WNW 6.9 mph11.1 kmh 30.27 in1025.1 mb 0.00 in0.0 mm 0.00 in0.0 mm 0.00 in0.0 mm
03:44 AM 38.5°F3.6°C 34.3°F1.3°C 85% 2.0 mph WSW3.2 kmh WSW 4.0 mph6.4 kmh 30.27 in1025.1 mb 0.00 in0.0 mm 0.00 in0.0 mm 0.00 in0.0 mm
03:42 AM 38.5°F3.6°C 34.3°F1.3°C 85% 2.0 mph WNW3.2 kmh WNW 8.1 mph13.0 kmh 30.27 in1025.1 mb 0.00 in0.0 mm 0.00 in0.0 mm 0.00 in0.0 mm
03:39 AM 38.5°F3.6°C 34.3°F1.3°C 85% 0.9 mph WNW1.4 kmh WNW 6.0 mph9.7 kmh 30.26 in1024.7 mb 0.00 in0.0 mm 0.00 in0.0 mm 0.00 in0.0 mm
03:37 AM 38.5°F3.6°C 34.3°F1.3°C 85% 2.0 mph W3.2 kmh W 10.1 mph16.3 kmh 30.26 in1024.7 mb 0.00 in0.0 mm 0.00 in0.0 mm 0.00 in0.0 mm
03:35 AM 38.5°F3.6°C 34.3°F1.3°C 85% 0.9 mph W1.4 kmh W 4.0 mph6.4 kmh 30.26 in1024.7 mb 0.00 in0.0 mm 0.00 in0.0 mm 0.00 in0.0 mm
03:33 AM 38.5°F3.6°C 34.3°F1.3°C 85% 0.9 mph NW1.4 kmh NW 2.9 mph4.7 kmh 30.26 in1024.7 mb 0.00 in0.0 mm 0.00 in0.0 mm 0.00 in0.0 mm
03:31 AM 38.5°F3.6°C 34.3°F1.3°C 85% 2.0 mph ESE3.2 kmh ESE 9.0 mph14.5 kmh 30.26 in1024.7 mb 0.00 in0.0 mm 0.00 in0.0 mm 0.00 in0.0 mm
03:29 AM 38.5°F3.6°C 34.3°F1.3°C 85% 2.0 mph E3.2 kmh E 4.0 mph6.4 kmh 30.26 in1024.7 mb 0.00 in0.0 mm 0.00 in0.0 mm 0.00 in0.0 mm
03:27 AM 38.5°F3.6°C 34.3°F1.3°C 85% 2.0 mph SW3.2 kmh SW 4.9 mph7.9 kmh 30.25 in1024.4 mb 0.00 in0.0 mm 0.00 in0.0 mm 0.00 in0.0 mm
03:25 AM 38.7°F3.7°C 34.5°F1.4°C 85% 2.0 mph W3.2 kmh W 4.9 mph7.9 kmh 30.26 in1024.7 mb 0.00 in0.0 mm 0.00 in0.0 mm 0.00 in0.0 mm
03:23 AM 38.7°F3.7°C 34.5°F1.4°C 85% 2.0 mph WSW3.2 kmh WSW 6.0 mph9.7 kmh 30.25 in1024.4 mb 0.00 in0.0 mm 0.00 in0.0 mm 0.00 in0.0 mm
03:21 AM 38.7°F3.7°C 34.5°F1.4°C 85% 2.0 mph WNW3.2 kmh WNW 8.9 mph14.3 kmh 30.25 in1024.4 mb 0.00 in0.0 mm 0.00 in0.0 mm 0.00 in0.0 mm
03:19 AM 38.7°F3.7°C 34.5°F1.4°C 85% 2.0 mph W3.2 kmh W 6.9 mph11.1 kmh 30.25 in1024.4 mb 0.00 in0.0 mm 0.00 in0.0 mm 0.00 in0.0 mm
03:17 AM 38.7°F3.7°C 34.5°F1.4°C 85% 2.0 mph WSW3.2 kmh WSW 6.0 mph9.7 kmh 30.25 in1024.4 mb 0.00 in0.0 mm 0.00 in0.0 mm 0.00 in0.0 mm
03:15 AM 38.7°F3.7°C 34.5°F1.4°C 85% 2.9 mph NNW4.7 kmh NNW 10.1 mph16.3 kmh 30.25 in1024.4 mb 0.00 in0.0 mm 0.00 in0.0 mm 0.00 in0.0 mm
03:13 AM 38.8°F3.8°C 34.7°F1.5°C 85% 2.0 mph NW3.2 kmh NW 6.0 mph9.7 kmh 30.26 in1024.7 mb 0.00 in0.0 mm 0.00 in0.0 mm 0.00 in0.0 mm
03:11 AM 38.8°F3.8°C 34.7°F1.5°C 85% 2.0 mph S3.2 kmh S 6.9 mph11.1 kmh 30.25 in1024.4 mb 0.00 in0.0 mm 0.00 in0.0 mm 0.00 in0.0 mm
03:09 AM 38.8°F3.8°C 34.7°F1.5°C 85% 2.0 mph SW3.2 kmh SW 4.9 mph7.9 kmh 30.25 in1024.4 mb 0.00 in0.0 mm 0.00 in0.0 mm 0.00 in0.0 mm
03:07 AM 38.8°F3.8°C 34.7°F1.5°C 85% 2.0 mph W3.2 kmh W 4.9 mph7.9 kmh 30.25 in1024.4 mb 0.00 in0.0 mm 0.00 in0.0 mm 0.00 in0.0 mm
03:05 AM 38.8°F3.8°C 34.7°F1.5°C 85% 2.0 mph WSW3.2 kmh WSW 4.0 mph6.4 kmh 30.25 in1024.4 mb 0.00 in0.0 mm 0.00 in0.0 mm 0.00 in0.0 mm
03:03 AM 38.8°F3.8°C 34.7°F1.5°C 85% 2.0 mph ENE3.2 kmh ENE 4.9 mph7.9 kmh 30.25 in1024.4 mb 0.00 in0.0 mm 0.00 in0.0 mm 0.00 in0.0 mm
03:01 AM 38.8°F3.8°C 34.7°F1.5°C 85% 2.0 mph WNW3.2 kmh WNW 4.9 mph7.9 kmh 30.25 in1024.4 mb 0.00 in0.0 mm 0.00 in0.0 mm 0.00 in0.0 mm
02:59 AM 38.8°F3.8°C 34.7°F1.5°C 85% 2.0 mph N3.2 kmh N 4.0 mph6.4 kmh 30.24 in1024.0 mb 0.00 in0.0 mm 0.00 in0.0 mm 0.00 in0.0 mm
02:57 AM 38.8°F3.8°C 34.7°F1.5°C 85% 2.0 mph W3.2 kmh W 8.1 mph13.0 kmh 30.24 in1024.0 mb 0.00 in0.0 mm 0.00 in0.0 mm 0.00 in0.0 mm
02:55 AM 38.8°F3.8°C 34.7°F1.5°C 85% 2.0 mph ENE3.2 kmh ENE 8.0 mph12.9 kmh 30.24 in1024.0 mb 0.00 in0.0 mm 0.00 in0.0 mm 0.00 in0.0 mm
02:53 AM 38.8°F3.8°C 35.1°F1.7°C 86% 2.0 mph W3.2 kmh W 7.0 mph11.3 kmh 30.24 in1024.0 mb 0.00 in0.0 mm 0.00 in0.0 mm 0.00 in0.0 mm
02:51 AM 38.7°F3.7°C 34.9°F1.6°C 86% 2.0 mph E3.2 kmh E 4.0 mph6.4 kmh 30.24 in1024.0 mb 0.00 in0.0 mm 0.00 in0.0 mm 0.00 in0.0 mm
02:49 AM 38.7°F3.7°C 34.9°F1.6°C 86% 2.0 mph WSW3.2 kmh WSW 4.9 mph7.9 kmh 30.24 in1024.0 mb 0.00 in0.0 mm 0.00 in0.0 mm 0.00 in0.0 mm
02:47 AM 38.8°F3.8°C 35.1°F1.7°C 86% 2.0 mph W3.2 kmh W 4.9 mph7.9 kmh 30.24 in1024.0 mb 0.00 in0.0 mm 0.00 in0.0 mm 0.00 in0.0 mm
02:45 AM 38.8°F3.8°C 35.1°F1.7°C 86% 2.0 mph W3.2 kmh W 4.0 mph6.4 kmh 30.24 in1024.0 mb 0.00 in0.0 mm 0.00 in0.0 mm 0.00 in0.0 mm
02:43 AM 38.8°F3.8°C 35.1°F1.7°C 86% 2.0 mph WNW3.2 kmh WNW 6.9 mph11.1 kmh 30.24 in1024.0 mb 0.00 in0.0 mm 0.00 in0.0 mm 0.00 in0.0 mm
02:41 AM 38.8°F3.8°C 35.1°F1.7°C 86% 2.0 mph W3.2 kmh W 6.9 mph11.1 kmh 30.24 in1024.0 mb 0.00 in0.0 mm 0.00 in0.0 mm 0.00 in0.0 mm
02:39 AM 38.7°F3.7°C 34.9°F1.6°C 86% 0.9 mph W1.4 kmh W 6.0 mph9.7 kmh 30.24 in1024.0 mb 0.00 in0.0 mm 0.00 in0.0 mm 0.00 in0.0 mm
02:37 AM 38.7°F3.7°C 34.9°F1.6°C 86% 2.0 mph W3.2 kmh W 2.9 mph4.7 kmh 30.24 in1024.0 mb 0.00 in0.0 mm 0.00 in0.0 mm 0.00 in0.0 mm
02:35 AM 38.7°F3.7°C 35.1°F1.7°C 87% 2.0 mph W3.2 kmh W 4.0 mph6.4 kmh 30.24 in1024.0 mb 0.00 in0.0 mm 0.00 in0.0 mm 0.00 in0.0 mm
02:33 AM 38.7°F3.7°C 35.1°F1.7°C 87% 0.9 mph W1.4 kmh W 6.9 mph11.1 kmh 30.23 in1023.7 mb 0.00 in0.0 mm 0.00 in0.0 mm 0.00 in0.0 mm
02:31 AM 38.7°F3.7°C 35.1°F1.7°C 87% 0.9 mph W1.4 kmh W 4.0 mph6.4 kmh 30.24 in1024.0 mb 0.00 in0.0 mm 0.00 in0.0 mm 0.00 in0.0 mm
02:29 AM 38.7°F3.7°C 35.1°F1.7°C 87% 0.9 mph NNW1.4 kmh NNW 4.9 mph7.9 kmh 30.23 in1023.7 mb 0.00 in0.0 mm 0.00 in0.0 mm 0.00 in0.0 mm
02:27 AM 38.8°F3.8°C 35.2°F1.8°C 87% 0.9 mph WNW1.4 kmh WNW 4.9 mph7.9 kmh 30.23 in1023.7 mb 0.00 in0.0 mm 0.00 in0.0 mm 0.00 in0.0 mm
02:25 AM 38.7°F3.7°C 35.1°F1.7°C 87% 0.9 mph WNW1.4 kmh WNW 2.9 mph4.7 kmh 30.23 in1023.7 mb 0.00 in0.0 mm 0.00 in0.0 mm 0.00 in0.0 mm
02:23 AM 38.8°F3.8°C 35.2°F1.8°C 87% 2.0 mph NNE3.2 kmh NNE 2.9 mph4.7 kmh 30.23 in1023.7 mb 0.00 in0.0 mm 0.00 in0.0 mm 0.00 in0.0 mm
02:21 AM 38.8°F3.8°C 35.2°F1.8°C 87% 0.9 mph W1.4 kmh W 6.0 mph9.7 kmh 30.23 in1023.7 mb 0.00 in0.0 mm 0.00 in0.0 mm 0.00 in0.0 mm
02:19 AM 38.8°F3.8°C 35.2°F1.8°C 87% 0.9 mph N1.4 kmh N 4.0 mph6.4 kmh 30.23 in1023.7 mb 0.00 in0.0 mm 0.00 in0.0 mm 0.00 in0.0 mm
02:17 AM 38.8°F3.8°C 35.2°F1.8°C 87% 2.0 mph W3.2 kmh W 8.0 mph12.9 kmh 30.23 in1023.7 mb 0.00 in0.0 mm 0.00 in0.0 mm 0.00 in0.0 mm
02:15 AM 38.8°F3.8°C 35.2°F1.8°C 87% 2.0 mph WNW3.2 kmh WNW 6.0 mph9.7 kmh 30.22 in1023.4 mb 0.00 in0.0 mm 0.00 in0.0 mm 0.00 in0.0 mm
02:13 AM 38.8°F3.8°C 35.2°F1.8°C 87% 0.9 mph W1.4 kmh W 2.9 mph4.7 kmh 30.22 in1023.4 mb 0.00 in0.0 mm 0.00 in0.0 mm 0.00 in0.0 mm
02:11 AM 39.0°F3.9°C 35.4°F1.9°C 87% 2.0 mph W3.2 kmh W 4.9 mph7.9 kmh 30.22 in1023.4 mb 0.00 in0.0 mm 0.00 in0.0 mm 0.00 in0.0 mm
02:09 AM 39.0°F3.9°C 35.4°F1.9°C 87% 0.9 mph WNW1.4 kmh WNW 4.9 mph7.9 kmh 30.22 in1023.4 mb 0.00 in0.0 mm 0.00 in0.0 mm 0.00 in0.0 mm
02:07 AM 38.8°F3.8°C 35.2°F1.8°C 87% 0.9 mph W1.4 kmh W 8.1 mph13.0 kmh 30.22 in1023.4 mb 0.00 in0.0 mm 0.00 in0.0 mm 0.00 in0.0 mm
02:05 AM 38.8°F3.8°C 35.2°F1.8°C 87% 0.9 mph SW1.4 kmh SW 6.0 mph9.7 kmh 30.22 in1023.4 mb 0.00 in0.0 mm 0.00 in0.0 mm 0.00 in0.0 mm
02:03 AM 39.0°F3.9°C 35.4°F1.9°C 87% 0.9 mph WNW1.4 kmh WNW 2.9 mph4.7 kmh 30.22 in1023.4 mb 0.00 in0.0 mm 0.00 in0.0 mm 0.00 in0.0 mm
02:01 AM 39.0°F3.9°C 35.4°F1.9°C 87% 0.9 mph W1.4 kmh W 6.0 mph9.7 kmh 30.22 in1023.4 mb 0.00 in0.0 mm 0.00 in0.0 mm 0.00 in0.0 mm
01:59 AM 39.0°F3.9°C 35.4°F1.9°C 87% 0.9 mph W1.4 kmh W 2.9 mph4.7 kmh 30.22 in1023.4 mb 0.00 in0.0 mm 0.00 in0.0 mm 0.00 in0.0 mm
01:57 AM 39.0°F3.9°C 35.4°F1.9°C 87% 2.0 mph W3.2 kmh W 2.9 mph4.7 kmh 30.22 in1023.4 mb 0.00 in0.0 mm 0.00 in0.0 mm 0.00 in0.0 mm
01:55 AM 39.0°F3.9°C 35.4°F1.9°C 87% 2.0 mph NW3.2 kmh NW 2.9 mph4.7 kmh 30.21 in1023.0 mb 0.00 in0.0 mm 0.00 in0.0 mm 0.00 in0.0 mm
01:53 AM 39.0°F3.9°C 35.4°F1.9°C 87% 2.0 mph W3.2 kmh W 4.0 mph6.4 kmh 30.21 in1023.0 mb 0.00 in0.0 mm 0.00 in0.0 mm 0.00 in0.0 mm
01:51 AM 39.0°F3.9°C 35.4°F1.9°C 87% 2.0 mph W3.2 kmh W 6.0 mph9.7 kmh 30.21 in1023.0 mb 0.00 in0.0 mm 0.00 in0.0 mm 0.00 in0.0 mm
01:49 AM 39.0°F3.9°C 35.4°F1.9°C 87% 2.0 mph W3.2 kmh W 4.9 mph7.9 kmh 30.21 in1023.0 mb 0.00 in0.0 mm 0.00 in0.0 mm 0.00 in0.0 mm
01:47 AM 39.2°F4.0°C 35.6°F2.0°C 87% 2.0 mph W3.2 kmh W 4.0 mph6.4 kmh 30.21 in1023.0 mb 0.00 in0.0 mm 0.00 in0.0 mm 0.00 in0.0 mm
01:45 AM 39.2°F4.0°C 35.6°F2.0°C 87% 2.0 mph W3.2 kmh W 4.0 mph6.4 kmh 30.21 in1023.0 mb 0.00 in0.0 mm 0.00 in0.0 mm 0.00 in0.0 mm
01:43 AM 39.2°F4.0°C 35.6°F2.0°C 87% 2.0 mph W3.2 kmh W 6.0 mph9.7 kmh 30.21 in1023.0 mb 0.00 in0.0 mm 0.00 in0.0 mm 0.00 in0.0 mm
01:41 AM 39.4°F4.1°C 35.8°F2.1°C 87% 2.0 mph WSW3.2 kmh WSW 6.9 mph11.1 kmh 30.21 in1023.0 mb 0.00 in0.0 mm 0.00 in0.0 mm 0.00 in0.0 mm
01:39 AM 39.4°F4.1°C 35.8°F2.1°C 87% 2.0 mph W3.2 kmh W 4.9 mph7.9 kmh 30.21 in1023.0 mb 0.00 in0.0 mm 0.00 in0.0 mm 0.00 in0.0 mm
01:37 AM 39.4°F4.1°C 36.1°F2.3°C 88% 2.0 mph WNW3.2 kmh WNW 4.9 mph7.9 kmh 30.21 in1023.0 mb 0.00 in0.0 mm 0.00 in0.0 mm 0.00 in0.0 mm
01:35 AM 39.2°F4.0°C 36.0°F2.2°C 88% 2.0 mph N3.2 kmh N 6.0 mph9.7 kmh 30.20 in1022.7 mb 0.00 in0.0 mm 0.00 in0.0 mm 0.00 in0.0 mm
01:33 AM 39.2°F4.0°C 36.0°F2.2°C 88% 2.0 mph WSW3.2 kmh WSW 4.9 mph7.9 kmh 30.21 in1023.0 mb 0.00 in0.0 mm 0.00 in0.0 mm 0.00 in0.0 mm
01:31 AM 39.2°F4.0°C 36.0°F2.2°C 88% 2.0 mph W3.2 kmh W 2.0 mph3.2 kmh 30.20 in1022.7 mb 0.00 in0.0 mm 0.00 in0.0 mm 0.00 in0.0 mm
01:29 AM 39.4°F4.1°C 36.1°F2.3°C 88% 2.0 mph W3.2 kmh W 2.9 mph4.7 kmh 30.20 in1022.7 mb 0.00 in0.0 mm 0.00 in0.0 mm 0.00 in0.0 mm
01:27 AM 39.2°F4.0°C 36.0°F2.2°C 88% 2.0 mph WNW3.2 kmh WNW 8.0 mph12.9 kmh 30.20 in1022.7 mb 0.00 in0.0 mm 0.00 in0.0 mm 0.00 in0.0 mm
01:25 AM 39.2°F4.0°C 36.0°F2.2°C 88% 0.9 mph NW1.4 kmh NW 4.0 mph6.4 kmh 30.20 in1022.7 mb 0.00 in0.0 mm 0.00 in0.0 mm 0.00 in0.0 mm
01:23 AM 39.2°F4.0°C 36.0°F2.2°C 88% 0.9 mph WNW1.4 kmh WNW 5.0 mph8.0 kmh 30.20 in1022.7 mb 0.00 in0.0 mm 0.00 in0.0 mm 0.00 in0.0 mm
01:21 AM 39.2°F4.0°C 36.0°F2.2°C 88% 0.9 mph WSW1.4 kmh WSW 5.0 mph8.0 kmh 30.20 in1022.7 mb 0.00 in0.0 mm 0.00 in0.0 mm 0.00 in0.0 mm
01:19 AM 39.4°F4.1°C 36.1°F2.3°C 88% 0.9 mph NNW1.4 kmh NNW 2.9 mph4.7 kmh 30.20 in1022.7 mb 0.00 in0.0 mm 0.00 in0.0 mm 0.00 in0.0 mm
01:17 AM 39.4°F4.1°C 36.1°F2.3°C 88% 2.0 mph W3.2 kmh W 2.9 mph4.7 kmh 30.20 in1022.7 mb 0.00 in0.0 mm 0.00 in0.0 mm 0.00 in0.0 mm
01:15 AM 39.4°F4.1°C 36.1°F2.3°C 88% 2.0 mph WNW3.2 kmh WNW 4.0 mph6.4 kmh 30.20 in1022.7 mb 0.00 in0.0 mm 0.00 in0.0 mm 0.00 in0.0 mm
01:13 AM 39.4°F4.1°C 36.1°F2.3°C 88% 0.9 mph W1.4 kmh W 4.0 mph6.4 kmh 30.20 in1022.7 mb 0.00 in0.0 mm 0.00 in0.0 mm 0.00 in0.0 mm
01:11 AM 39.4°F4.1°C 36.1°F2.3°C 88% 2.0 mph W3.2 kmh W 9.0 mph14.5 kmh 30.20 in1022.7 mb 0.00 in0.0 mm 0.00 in0.0 mm 0.00 in0.0 mm
01:09 AM 39.4°F4.1°C 36.1°F2.3°C 88% 2.0 mph WSW3.2 kmh WSW 4.9 mph7.9 kmh 30.19 in1022.4 mb 0.00 in0.0 mm 0.00 in0.0 mm 0.00 in0.0 mm
01:07 AM 39.6°F4.2°C 36.3°F2.4°C 88% 2.0 mph W3.2 kmh W 4.9 mph7.9 kmh 30.19 in1022.4 mb 0.00 in0.0 mm 0.00 in0.0 mm 0.00 in0.0 mm
01:05 AM 39.6°F4.2°C 36.3°F2.4°C 88% 2.0 mph NW3.2 kmh NW 6.9 mph11.1 kmh 30.19 in1022.4 mb 0.00 in0.0 mm 0.00 in0.0 mm 0.00 in0.0 mm
01:03 AM 39.6°F4.2°C 36.3°F2.4°C 88% 2.0 mph W3.2 kmh W 8.1 mph13.0 kmh 30.19 in1022.4 mb 0.00 in0.0 mm 0.00 in0.0 mm 0.00 in0.0 mm
01:01 AM 39.4°F4.1°C 36.1°F2.3°C 88% 0.9 mph NW1.4 kmh NW 9.0 mph14.5 kmh 30.19 in1022.4 mb 0.00 in0.0 mm 0.00 in0.0 mm 0.00 in0.0 mm
12:59 AM 39.6°F4.2°C 36.3°F2.4°C 88% 0.9 mph WSW1.4 kmh WSW 4.0 mph6.4 kmh 30.19 in1022.4 mb 0.00 in0.0 mm 0.00 in0.0 mm 0.00 in0.0 mm
12:57 AM 39.6°F4.2°C 36.3°F2.4°C 88% 0.9 mph N1.4 kmh N 4.0 mph6.4 kmh 30.19 in1022.4 mb 0.00 in0.0 mm 0.00 in0.0 mm 0.00 in0.0 mm
12:55 AM 39.6°F4.2°C 36.3°F2.4°C 88% 0.9 mph WSW1.4 kmh WSW 2.0 mph3.2 kmh 30.19 in1022.4 mb 0.00 in0.0 mm 0.00 in0.0 mm 0.00 in0.0 mm
12:53 AM 39.6°F4.2°C 36.3°F2.4°C 88% 0.9 mph W1.4 kmh W 4.0 mph6.4 kmh 30.19 in1022.4 mb 0.00 in0.0 mm 0.00 in0.0 mm 0.00 in0.0 mm
12:51 AM 39.7°F4.3°C 36.5°F2.5°C 88% 0.9 mph WNW1.4 kmh WNW 4.9 mph7.9 kmh 30.19 in1022.4 mb 0.00 in0.0 mm 0.00 in0.0 mm 0.00 in0.0 mm
12:47 AM 39.7°F4.3°C 36.1°F2.3°C 87% 0.9 mph WSW1.4 kmh WSW 4.9 mph7.9 kmh 30.18 in1022.0 mb 0.00 in0.0 mm 0.00 in0.0 mm 0.00 in0.0 mm
12:45 AM 39.9°F4.4°C 36.3°F2.4°C 87% 0.9 mph NE1.4 kmh NE 2.0 mph3.2 kmh 30.18 in1022.0 mb 0.00 in0.0 mm 0.00 in0.0 mm 0.00 in0.0 mm
12:43 AM 39.9°F4.4°C 36.3°F2.4°C 87% 2.0 mph WSW3.2 kmh WSW 2.9 mph4.7 kmh 30.19 in1022.4 mb 0.00 in0.0 mm 0.00 in0.0 mm 0.00 in0.0 mm
12:41 AM 39.9°F4.4°C 36.3°F2.4°C 87% 2.0 mph SW3.2 kmh SW 4.9 mph7.9 kmh 30.18 in1022.0 mb 0.00 in0.0 mm 0.00 in0.0 mm 0.00 in0.0 mm
12:39 AM 40.1°F4.5°C 36.5°F2.5°C 87% 2.0 mph N3.2 kmh N 4.9 mph7.9 kmh 30.18 in1022.0 mb 0.00 in0.0 mm 0.00 in0.0 mm 0.00 in0.0 mm
12:37 AM 40.1°F4.5°C 36.5°F2.5°C 87% 2.0 mph W3.2 kmh W 4.0 mph6.4 kmh 30.18 in1022.0 mb 0.00 in0.0 mm 0.00 in0.0 mm 0.00 in0.0 mm
12:35 AM 40.3°F4.6°C 36.7°F2.6°C 87% 2.0 mph WSW3.2 kmh WSW 4.9 mph7.9 kmh 30.18 in1022.0 mb 0.00 in0.0 mm 0.00 in0.0 mm 0.00 in0.0 mm
12:33 AM 40.3°F4.6°C 36.5°F2.5°C 86% 2.0 mph WSW3.2 kmh WSW 4.9 mph7.9 kmh 30.18 in1022.0 mb 0.00 in0.0 mm 0.00 in0.0 mm 0.00 in0.0 mm
12:31 AM 40.3°F4.6°C 36.5°F2.5°C 86% 2.0 mph WSW3.2 kmh WSW 8.1 mph13.0 kmh 30.18 in1022.0 mb 0.00 in0.0 mm 0.00 in0.0 mm 0.00 in0.0 mm
12:29 AM 40.3°F4.6°C 36.5°F2.5°C 86% 2.0 mph W3.2 kmh W 6.9 mph11.1 kmh 30.18 in1022.0 mb 0.00 in0.0 mm 0.00 in0.0 mm 0.00 in0.0 mm
12:27 AM 40.5°F4.7°C 36.7°F2.6°C 86% 2.0 mph W3.2 kmh W 6.0 mph9.7 kmh 30.18 in1022.0 mb 0.00 in0.0 mm 0.00 in0.0 mm 0.00 in0.0 mm
12:25 AM 40.5°F4.7°C 36.7°F2.6°C 86% 2.0 mph NW3.2 kmh NW 4.9 mph7.9 kmh 30.18 in1022.0 mb 0.00 in0.0 mm 0.00 in0.0 mm 0.00 in0.0 mm
12:23 AM 40.6°F4.8°C 36.5°F2.5°C 85% 2.9 mph W4.7 kmh W 4.9 mph7.9 kmh 30.18 in1022.0 mb 0.00 in0.0 mm 0.00 in0.0 mm 0.00 in0.0 mm
12:21 AM 40.6°F4.8°C 36.5°F2.5°C 85% 4.0 mph W6.4 kmh W 2.9 mph4.7 kmh 30.18 in1022.0 mb 0.00 in0.0 mm 0.00 in0.0 mm 0.00 in0.0 mm
12:19 AM 40.8°F4.9°C 36.7°F2.6°C 85% 4.0 mph WNW6.4 kmh WNW 8.1 mph13.0 kmh 30.17 in1021.7 mb 0.00 in0.0 mm 0.00 in0.0 mm 0.00 in0.0 mm
12:17 AM 40.8°F4.9°C 36.7°F2.6°C 85% 4.0 mph SW6.4 kmh SW 10.1 mph16.3 kmh 30.17 in1021.7 mb 0.00 in0.0 mm 0.00 in0.0 mm 0.00 in0.0 mm
12:15 AM 40.6°F4.8°C 36.5°F2.5°C 85% 4.0 mph WNW6.4 kmh WNW 8.1 mph13.0 kmh 30.17 in1021.7 mb 0.00 in0.0 mm 0.00 in0.0 mm 0.00 in0.0 mm
12:13 AM 40.8°F4.9°C 36.7°F2.6°C 85% 4.0 mph NW6.4 kmh NW 8.9 mph14.3 kmh 30.17 in1021.7 mb 0.00 in0.0 mm 0.00 in0.0 mm 0.00 in0.0 mm
12:11 AM 40.8°F4.9°C 36.7°F2.6°C 85% 4.0 mph W6.4 kmh W 8.9 mph14.3 kmh 30.17 in1021.7 mb 0.00 in0.0 mm 0.00 in0.0 mm 0.00 in0.0 mm
12:09 AM 40.8°F4.9°C 36.7°F2.6°C 85% 4.9 mph WNW7.9 kmh WNW 8.1 mph13.0 kmh 30.17 in1021.7 mb 0.00 in0.0 mm 0.00 in0.0 mm 0.00 in0.0 mm
12:07 AM 40.8°F4.9°C 36.7°F2.6°C 85% 4.0 mph WNW6.4 kmh WNW 14.0 mph22.5 kmh 30.17 in1021.7 mb 0.00 in0.0 mm 0.00 in0.0 mm 0.00 in0.0 mm
12:05 AM 40.8°F4.9°C 36.7°F2.6°C 85% 4.9 mph W7.9 kmh W 10.1 mph16.3 kmh 30.16 in1021.3 mb 0.00 in0.0 mm 0.00 in0.0 mm 0.00 in0.0 mm
12:03 AM 40.6°F4.8°C 36.5°F2.5°C 85% 4.9 mph WNW7.9 kmh WNW 13.0 mph20.9 kmh 30.17 in1021.7 mb 0.00 in0.0 mm 0.00 in0.0 mm 0.00 in0.0 mm
12:00 AM 40.6°F4.8°C 36.9°F2.7°C 86% 4.0 mph WNW6.4 kmh WNW 6.9 mph11.1 kmh 30.16 in1021.3 mb 0.00 in0.0 mm 0.00 in0.0 mm 0.00 in0.0 mm